sensor_id;sensor_type;location;lat;lon;timestamp;P1;durP1;ratioP1;P2;durP2;ratioP2
14292;SDS011;62290;59.420;17.842;2023-02-12T00:01:51;2.28;;;1.50;;
14292;SDS011;62290;59.420;17.842;2023-02-12T00:04:20;1.88;;;1.30;;
14292;SDS011;62290;59.420;17.842;2023-02-12T00:06:47;1.58;;;1.17;;
14292;SDS011;62290;59.420;17.842;2023-02-12T00:09:15;1.95;;;1.40;;
14292;SDS011;62290;59.420;17.842;2023-02-12T00:11:43;2.53;;;1.33;;
14292;SDS011;62290;59.420;17.842;2023-02-12T00:14:11;2.28;;;1.40;;
14292;SDS011;62290;59.420;17.842;2023-02-12T00:16:40;1.60;;;1.45;;
14292;SDS011;62290;59.420;17.842;2023-02-12T00:19:09;1.80;;;1.60;;
14292;SDS011;62290;59.420;17.842;2023-02-12T00:21:37;1.80;;;1.35;;
14292;SDS011;62290;59.420;17.842;2023-02-12T00:24:05;1.15;;;1.05;;
14292;SDS011;62290;59.420;17.842;2023-02-12T00:26:34;2.50;;;1.50;;
14292;SDS011;62290;59.420;17.842;2023-02-12T00:29:02;1.80;;;1.35;;
14292;SDS011;62290;59.420;17.842;2023-02-12T00:31:30;2.03;;;1.48;;
14292;SDS011;62290;59.420;17.842;2023-02-12T00:33:58;4.05;;;1.45;;
14292;SDS011;62290;59.420;17.842;2023-02-12T00:36:29;3.85;;;1.52;;
14292;SDS011;62290;59.420;17.842;2023-02-12T00:38:58;2.78;;;1.35;;
14292;SDS011;62290;59.420;17.842;2023-02-12T00:41:27;1.88;;;1.50;;
14292;SDS011;62290;59.420;17.842;2023-02-12T00:43:55;2.08;;;1.40;;
14292;SDS011;62290;59.420;17.842;2023-02-12T00:46:23;1.95;;;1.30;;
14292;SDS011;62290;59.420;17.842;2023-02-12T00:48:51;1.88;;;1.42;;
14292;SDS011;62290;59.420;17.842;2023-02-12T00:51:19;2.45;;;1.33;;
14292;SDS011;62290;59.420;17.842;2023-02-12T00:53:49;2.30;;;1.40;;
14292;SDS011;62290;59.420;17.842;2023-02-12T00:56:17;3.55;;;1.73;;
14292;SDS011;62290;59.420;17.842;2023-02-12T00:58:47;2.28;;;1.58;;
14292;SDS011;62290;59.420;17.842;2023-02-12T01:01:15;2.75;;;1.50;;
14292;SDS011;62290;59.420;17.842;2023-02-12T01:03:44;2.08;;;1.45;;
14292;SDS011;62290;59.420;17.842;2023-02-12T01:06:12;3.15;;;1.55;;
14292;SDS011;62290;59.420;17.842;2023-02-12T01:08:40;2.45;;;1.85;;
14292;SDS011;62290;59.420;17.842;2023-02-12T01:11:11;1.60;;;1.50;;
14292;SDS011;62290;59.420;17.842;2023-02-12T01:13:40;2.35;;;1.70;;
14292;SDS011;62290;59.420;17.842;2023-02-12T01:16:12;2.55;;;1.67;;
14292;SDS011;62290;59.420;17.842;2023-02-12T01:18:42;2.25;;;1.63;;
14292;SDS011;62290;59.420;17.842;2023-02-12T01:21:11;1.98;;;1.50;;
14292;SDS011;62290;59.420;17.842;2023-02-12T01:23:41;3.00;;;1.77;;
14292;SDS011;62290;59.420;17.842;2023-02-12T01:26:11;2.28;;;2.08;;
14292;SDS011;62290;59.420;17.842;2023-02-12T01:28:41;2.90;;;2.30;;
14292;SDS011;62290;59.420;17.842;2023-02-12T01:31:11;2.67;;;2.22;;
14292;SDS011;62290;59.420;17.842;2023-02-12T01:33:42;2.47;;;2.05;;
14292;SDS011;62290;59.420;17.842;2023-02-12T01:36:10;2.13;;;2.03;;
14292;SDS011;62290;59.420;17.842;2023-02-12T01:38:38;3.30;;;1.77;;
14292;SDS011;62290;59.420;17.842;2023-02-12T01:41:07;2.33;;;2.13;;
14292;SDS011;62290;59.420;17.842;2023-02-12T01:43:39;3.53;;;2.22;;
14292;SDS011;62290;59.420;17.842;2023-02-12T01:46:09;2.17;;;1.98;;
14292;SDS011;62290;59.420;17.842;2023-02-12T01:48:41;2.53;;;2.28;;
14292;SDS011;62290;59.420;17.842;2023-02-12T01:51:11;2.08;;;1.88;;
14292;SDS011;62290;59.420;17.842;2023-02-12T01:53:49;2.83;;;1.58;;
14292;SDS011;62290;59.420;17.842;2023-02-12T01:56:20;2.33;;;1.48;;
14292;SDS011;62290;59.420;17.842;2023-02-12T01:58:51;1.75;;;1.65;;
14292;SDS011;62290;59.420;17.842;2023-02-12T02:01:21;1.75;;;1.40;;
14292;SDS011;62290;59.420;17.842;2023-02-12T02:03:53;2.40;;;1.67;;
14292;SDS011;62290;59.420;17.842;2023-02-12T02:06:25;1.50;;;1.40;;
14292;SDS011;62290;59.420;17.842;2023-02-12T02:08:58;1.98;;;1.30;;
14292;SDS011;62290;59.420;17.842;2023-02-12T02:11:27;2.78;;;1.35;;
14292;SDS011;62290;59.420;17.842;2023-02-12T02:14:14;1.63;;;1.10;;
14292;SDS011;62290;59.420;17.842;2023-02-12T02:17:05;5.28;;;1.23;;
14292;SDS011;62290;59.420;17.842;2023-02-12T02:20:04;2.45;;;1.40;;
14292;SDS011;62290;59.420;17.842;2023-02-12T02:22:52;6.13;;;1.73;;
14292;SDS011;62290;59.420;17.842;2023-02-12T02:25:41;2.25;;;1.25;;
14292;SDS011;62290;59.420;17.842;2023-02-12T02:28:30;1.95;;;1.55;;
14292;SDS011;62290;59.420;17.842;2023-02-12T02:31:08;2.72;;;1.30;;
14292;SDS011;62290;59.420;17.842;2023-02-12T02:33:44;2.45;;;1.23;;
14292;SDS011;62290;59.420;17.842;2023-02-12T02:36:21;1.92;;;1.30;;
14292;SDS011;62290;59.420;17.842;2023-02-12T02:38:56;2.67;;;1.13;;
14292;SDS011;62290;59.420;17.842;2023-02-12T02:41:32;1.40;;;0.80;;
14292;SDS011;62290;59.420;17.842;2023-02-12T02:44:06;1.40;;;0.98;;
14292;SDS011;62290;59.420;17.842;2023-02-12T02:46:42;1.60;;;1.08;;
14292;SDS011;62290;59.420;17.842;2023-02-12T02:49:15;3.28;;;1.33;;
14292;SDS011;62290;59.420;17.842;2023-02-12T02:51:46;1.92;;;0.90;;
14292;SDS011;62290;59.420;17.842;2023-02-12T02:54:20;2.30;;;1.20;;
14292;SDS011;62290;59.420;17.842;2023-02-12T02:56:54;1.92;;;1.20;;
14292;SDS011;62290;59.420;17.842;2023-02-12T02:59:28;1.30;;;1.00;;
14292;SDS011;62290;59.420;17.842;2023-02-12T03:02:03;1.92;;;1.00;;
14292;SDS011;62290;59.420;17.842;2023-02-12T03:04:38;1.35;;;1.25;;
14292;SDS011;62290;59.420;17.842;2023-02-12T03:07:10;1.90;;;1.30;;
14292;SDS011;62290;59.420;17.842;2023-02-12T03:09:44;2.25;;;1.27;;
14292;SDS011;62290;59.420;17.842;2023-02-12T03:12:17;1.63;;;1.10;;
14292;SDS011;62290;59.420;17.842;2023-02-12T03:14:49;2.03;;;1.38;;
14292;SDS011;62290;59.420;17.842;2023-02-12T03:17:25;2.95;;;1.38;;
14292;SDS011;62290;59.420;17.842;2023-02-12T03:19:59;1.42;;;1.20;;
14292;SDS011;62290;59.420;17.842;2023-02-12T03:22:32;1.67;;;1.17;;
14292;SDS011;62290;59.420;17.842;2023-02-12T03:25:06;1.33;;;1.23;;
14292;SDS011;62290;59.420;17.842;2023-02-12T03:27:40;1.85;;;1.00;;
14292;SDS011;62290;59.420;17.842;2023-02-12T03:30:11;1.85;;;1.15;;
14292;SDS011;62290;59.420;17.842;2023-02-12T03:32:43;1.20;;;0.95;;
14292;SDS011;62290;59.420;17.842;2023-02-12T03:35:18;2.00;;;1.00;;
14292;SDS011;62290;59.420;17.842;2023-02-12T03:37:50;1.45;;;1.00;;
14292;SDS011;62290;59.420;17.842;2023-02-12T03:40:27;2.03;;;1.20;;
14292;SDS011;62290;59.420;17.842;2023-02-12T03:43:01;2.25;;;1.10;;
14292;SDS011;62290;59.420;17.842;2023-02-12T03:45:36;1.00;;;0.90;;
14292;SDS011;62290;59.420;17.842;2023-02-12T03:48:10;1.70;;;1.05;;
14292;SDS011;62290;59.420;17.842;2023-02-12T03:50:46;1.42;;;1.10;;
14292;SDS011;62290;59.420;17.842;2023-02-12T03:53:19;1.67;;;1.10;;
14292;SDS011;62290;59.420;17.842;2023-02-12T03:55:49;2.13;;;1.30;;
14292;SDS011;62290;59.420;17.842;2023-02-12T03:58:20;3.88;;;1.58;;
14292;SDS011;62290;59.420;17.842;2023-02-12T04:00:54;1.25;;;1.15;;
14292;SDS011;62290;59.420;17.842;2023-02-12T04:03:24;1.52;;;1.42;;
14292;SDS011;62290;59.420;17.842;2023-02-12T04:05:53;1.73;;;1.50;;
14292;SDS011;62290;59.420;17.842;2023-02-12T04:08:21;1.77;;;1.60;;
14292;SDS011;62290;59.420;17.842;2023-02-12T04:10:55;1.60;;;1.50;;
14292;SDS011;62290;59.420;17.842;2023-02-12T04:13:37;2.03;;;1.88;;
14292;SDS011;62290;59.420;17.842;2023-02-12T04:16:13;1.70;;;1.60;;
14292;SDS011;62290;59.420;17.842;2023-02-12T04:18:48;3.13;;;2.25;;
14292;SDS011;62290;59.420;17.842;2023-02-12T04:21:19;2.25;;;1.90;;
14292;SDS011;62290;59.420;17.842;2023-02-12T04:24:03;2.83;;;2.13;;
14292;SDS011;62290;59.420;17.842;2023-02-12T04:26:38;2.53;;;2.33;;
14292;SDS011;62290;59.420;17.842;2023-02-12T04:29:16;3.05;;;2.85;;
14292;SDS011;62290;59.420;17.842;2023-02-12T04:31:53;2.83;;;2.63;;
14292;SDS011;62290;59.420;17.842;2023-02-12T04:34:29;2.17;;;2.08;;
14292;SDS011;62290;59.420;17.842;2023-02-12T04:37:03;2.15;;;1.80;;
14292;SDS011;62290;59.420;17.842;2023-02-12T04:39:36;2.28;;;1.48;;
14292;SDS011;62290;59.420;17.842;2023-02-12T04:42:07;1.67;;;1.52;;
14292;SDS011;62290;59.420;17.842;2023-02-12T04:44:37;1.50;;;1.40;;
14292;SDS011;62290;59.420;17.842;2023-02-12T04:47:06;1.30;;;1.20;;
14292;SDS011;62290;59.420;17.842;2023-02-12T04:49:35;1.30;;;1.20;;
14292;SDS011;62290;59.420;17.842;2023-02-12T04:52:03;1.45;;;1.02;;
14292;SDS011;62290;59.420;17.842;2023-02-12T04:54:31;1.33;;;1.20;;
14292;SDS011;62290;59.420;17.842;2023-02-12T04:56:59;3.38;;;1.20;;
14292;SDS011;62290;59.420;17.842;2023-02-12T04:59:27;1.42;;;1.20;;
14292;SDS011;62290;59.420;17.842;2023-02-12T05:01:56;1.33;;;1.02;;
14292;SDS011;62290;59.420;17.842;2023-02-12T05:04:24;3.58;;;1.50;;
14292;SDS011;62290;59.420;17.842;2023-02-12T05:06:53;1.73;;;1.20;;
14292;SDS011;62290;59.420;17.842;2023-02-12T05:09:21;0.93;;;0.85;;
14292;SDS011;62290;59.420;17.842;2023-02-12T05:11:49;1.33;;;1.00;;
14292;SDS011;62290;59.420;17.842;2023-02-12T05:14:17;1.10;;;1.00;;
14292;SDS011;62290;59.420;17.842;2023-02-12T05:16:45;2.13;;;1.02;;
14292;SDS011;62290;59.420;17.842;2023-02-12T05:19:13;1.33;;;1.08;;
14292;SDS011;62290;59.420;17.842;2023-02-12T05:21:41;1.20;;;1.00;;
14292;SDS011;62290;59.420;17.842;2023-02-12T05:24:10;3.25;;;1.10;;
14292;SDS011;62290;59.420;17.842;2023-02-12T05:26:38;1.42;;;1.13;;
14292;SDS011;62290;59.420;17.842;2023-02-12T05:29:06;1.38;;;0.90;;
14292;SDS011;62290;59.420;17.842;2023-02-12T05:31:34;1.30;;;0.90;;
14292;SDS011;62290;59.420;17.842;2023-02-12T05:34:03;2.53;;;0.90;;
14292;SDS011;62290;59.420;17.842;2023-02-12T05:36:33;2.25;;;1.00;;
14292;SDS011;62290;59.420;17.842;2023-02-12T05:39:01;1.52;;;1.00;;
14292;SDS011;62290;59.420;17.842;2023-02-12T05:41:30;1.33;;;1.10;;
14292;SDS011;62290;59.420;17.842;2023-02-12T05:44:00;1.92;;;1.00;;
14292;SDS011;62290;59.420;17.842;2023-02-12T05:46:29;1.00;;;0.90;;
14292;SDS011;62290;59.420;17.842;2023-02-12T05:48:57;1.85;;;1.23;;
14292;SDS011;62290;59.420;17.842;2023-02-12T05:51:26;1.45;;;1.35;;
14292;SDS011;62290;59.420;17.842;2023-02-12T05:53:55;1.58;;;1.05;;
14292;SDS011;62290;59.420;17.842;2023-02-12T05:56:26;2.03;;;1.10;;
14292;SDS011;62290;59.420;17.842;2023-02-12T05:58:57;1.20;;;1.00;;
14292;SDS011;62290;59.420;17.842;2023-02-12T06:01:28;2.17;;;1.00;;
14292;SDS011;62290;59.420;17.842;2023-02-12T06:03:58;1.77;;;1.20;;
14292;SDS011;62290;59.420;17.842;2023-02-12T06:06:26;1.15;;;0.90;;
14292;SDS011;62290;59.420;17.842;2023-02-12T06:08:55;1.88;;;1.10;;
14292;SDS011;62290;59.420;17.842;2023-02-12T06:11:24;1.52;;;1.00;;
14292;SDS011;62290;59.420;17.842;2023-02-12T06:13:52;1.50;;;0.82;;
14292;SDS011;62290;59.420;17.842;2023-02-12T06:16:22;8.45;;;1.20;;
14292;SDS011;62290;59.420;17.842;2023-02-12T06:18:52;2.03;;;1.02;;
14292;SDS011;62290;59.420;17.842;2023-02-12T06:21:21;1.48;;;0.90;;
14292;SDS011;62290;59.420;17.842;2023-02-12T06:23:51;1.58;;;0.82;;
14292;SDS011;62290;59.420;17.842;2023-02-12T06:26:20;1.77;;;1.02;;
14292;SDS011;62290;59.420;17.842;2023-02-12T06:28:49;0.80;;;0.70;;
14292;SDS011;62290;59.420;17.842;2023-02-12T06:31:18;2.13;;;1.00;;
14292;SDS011;62290;59.420;17.842;2023-02-12T06:33:49;1.48;;;0.90;;
14292;SDS011;62290;59.420;17.842;2023-02-12T06:36:18;0.82;;;0.77;;
14292;SDS011;62290;59.420;17.842;2023-02-12T06:38:46;1.27;;;0.90;;
14292;SDS011;62290;59.420;17.842;2023-02-12T06:41:15;1.00;;;0.70;;
14292;SDS011;62290;59.420;17.842;2023-02-12T06:43:43;2.50;;;1.10;;
14292;SDS011;62290;59.420;17.842;2023-02-12T06:46:13;1.73;;;0.85;;
14292;SDS011;62290;59.420;17.842;2023-02-12T06:48:41;1.20;;;0.90;;
14292;SDS011;62290;59.420;17.842;2023-02-12T06:51:11;1.98;;;1.00;;
14292;SDS011;62290;59.420;17.842;2023-02-12T06:53:41;1.60;;;1.00;;
14292;SDS011;62290;59.420;17.842;2023-02-12T06:56:10;1.38;;;0.98;;
14292;SDS011;62290;59.420;17.842;2023-02-12T06:58:39;2.80;;;1.08;;
14292;SDS011;62290;59.420;17.842;2023-02-12T07:01:10;2.42;;;1.20;;
14292;SDS011;62290;59.420;17.842;2023-02-12T07:03:41;1.17;;;0.90;;
14292;SDS011;62290;59.420;17.842;2023-02-12T07:06:10;1.55;;;1.30;;
14292;SDS011;62290;59.420;17.842;2023-02-12T07:08:38;1.70;;;1.05;;
14292;SDS011;62290;59.420;17.842;2023-02-12T07:11:06;1.65;;;0.90;;
14292;SDS011;62290;59.420;17.842;2023-02-12T07:13:34;1.35;;;0.90;;
14292;SDS011;62290;59.420;17.842;2023-02-12T07:16:03;1.63;;;1.00;;
14292;SDS011;62290;59.420;17.842;2023-02-12T07:18:33;2.90;;;1.15;;
14292;SDS011;62290;59.420;17.842;2023-02-12T07:21:01;1.80;;;1.10;;
14292;SDS011;62290;59.420;17.842;2023-02-12T07:23:32;1.27;;;1.00;;
14292;SDS011;62290;59.420;17.842;2023-02-12T07:26:01;1.85;;;1.20;;
14292;SDS011;62290;59.420;17.842;2023-02-12T07:28:30;1.10;;;1.00;;
14292;SDS011;62290;59.420;17.842;2023-02-12T07:30:59;2.90;;;1.20;;
14292;SDS011;62290;59.420;17.842;2023-02-12T07:33:32;1.85;;;1.30;;
14292;SDS011;62290;59.420;17.842;2023-02-12T07:36:00;1.48;;;1.08;;
14292;SDS011;62290;59.420;17.842;2023-02-12T07:38:29;1.75;;;1.20;;
14292;SDS011;62290;59.420;17.842;2023-02-12T07:41:05;2.38;;;1.20;;
14292;SDS011;62290;59.420;17.842;2023-02-12T07:43:36;1.67;;;1.20;;
14292;SDS011;62290;59.420;17.842;2023-02-12T07:46:05;1.20;;;1.05;;
14292;SDS011;62290;59.420;17.842;2023-02-12T07:48:38;2.90;;;1.30;;
14292;SDS011;62290;59.420;17.842;2023-02-12T07:51:08;4.68;;;1.08;;
14292;SDS011;62290;59.420;17.842;2023-02-12T07:53:37;3.15;;;1.15;;
14292;SDS011;62290;59.420;17.842;2023-02-12T07:56:08;1.25;;;0.90;;
14292;SDS011;62290;59.420;17.842;2023-02-12T07:58:38;2.80;;;1.40;;
14292;SDS011;62290;59.420;17.842;2023-02-12T08:01:12;1.92;;;1.20;;
14292;SDS011;62290;59.420;17.842;2023-02-12T08:03:41;4.10;;;1.52;;
14292;SDS011;62290;59.420;17.842;2023-02-12T08:06:11;2.47;;;1.25;;
14292;SDS011;62290;59.420;17.842;2023-02-12T08:08:40;1.83;;;1.27;;
14292;SDS011;62290;59.420;17.842;2023-02-12T08:11:10;1.80;;;1.23;;
14292;SDS011;62290;59.420;17.842;2023-02-12T08:13:39;1.55;;;1.10;;
14292;SDS011;62290;59.420;17.842;2023-02-12T08:16:08;2.58;;;1.65;;
14292;SDS011;62290;59.420;17.842;2023-02-12T08:18:38;2.17;;;1.20;;
14292;SDS011;62290;59.420;17.842;2023-02-12T08:21:07;1.73;;;1.10;;
14292;SDS011;62290;59.420;17.842;2023-02-12T08:23:36;1.65;;;1.10;;
14292;SDS011;62290;59.420;17.842;2023-02-12T08:26:06;1.42;;;1.13;;
14292;SDS011;62290;59.420;17.842;2023-02-12T08:28:38;1.77;;;1.30;;
14292;SDS011;62290;59.420;17.842;2023-02-12T08:31:09;2.35;;;1.23;;
14292;SDS011;62290;59.420;17.842;2023-02-12T08:33:40;2.75;;;1.10;;
14292;SDS011;62290;59.420;17.842;2023-02-12T08:36:09;2.30;;;1.20;;
14292;SDS011;62290;59.420;17.842;2023-02-12T08:38:40;2.42;;;1.10;;
14292;SDS011;62290;59.420;17.842;2023-02-12T08:41:09;2.30;;;1.10;;
14292;SDS011;62290;59.420;17.842;2023-02-12T08:43:40;4.55;;;1.20;;
14292;SDS011;62290;59.420;17.842;2023-02-12T08:46:10;1.73;;;1.25;;
14292;SDS011;62290;59.420;17.842;2023-02-12T08:48:40;2.25;;;1.20;;
14292;SDS011;62290;59.420;17.842;2023-02-12T08:51:10;2.90;;;1.20;;
14292;SDS011;62290;59.420;17.842;2023-02-12T08:53:40;3.80;;;1.52;;
14292;SDS011;62290;59.420;17.842;2023-02-12T08:56:09;1.80;;;1.02;;
14292;SDS011;62290;59.420;17.842;2023-02-12T08:58:41;1.58;;;1.17;;
14292;SDS011;62290;59.420;17.842;2023-02-12T09:01:10;2.38;;;1.27;;
14292;SDS011;62290;59.420;17.842;2023-02-12T09:03:41;3.42;;;1.58;;
14292;SDS011;62290;59.420;17.842;2023-02-12T09:06:10;1.95;;;1.23;;
14292;SDS011;62290;59.420;17.842;2023-02-12T09:08:39;3.90;;;1.30;;
14292;SDS011;62290;59.420;17.842;2023-02-12T09:11:10;2.05;;;1.17;;
14292;SDS011;62290;59.420;17.842;2023-02-12T09:13:43;2.47;;;1.55;;
14292;SDS011;62290;59.420;17.842;2023-02-12T09:16:12;3.10;;;1.58;;
14292;SDS011;62290;59.420;17.842;2023-02-12T09:18:41;2.92;;;1.50;;
14292;SDS011;62290;59.420;17.842;2023-02-12T09:21:11;2.47;;;1.42;;
14292;SDS011;62290;59.420;17.842;2023-02-12T09:23:42;3.85;;;1.58;;
14292;SDS011;62290;59.420;17.842;2023-02-12T09:26:11;3.25;;;1.70;;
14292;SDS011;62290;59.420;17.842;2023-02-12T09:28:40;2.15;;;1.60;;
14292;SDS011;62290;59.420;17.842;2023-02-12T09:31:11;3.28;;;1.60;;
14292;SDS011;62290;59.420;17.842;2023-02-12T09:33:40;2.30;;;1.50;;
14292;SDS011;62290;59.420;17.842;2023-02-12T09:36:11;2.65;;;1.50;;
14292;SDS011;62290;59.420;17.842;2023-02-12T09:38:41;3.33;;;1.50;;
14292;SDS011;62290;59.420;17.842;2023-02-12T09:41:14;2.60;;;1.40;;
14292;SDS011;62290;59.420;17.842;2023-02-12T09:43:54;6.20;;;1.52;;
14292;SDS011;62290;59.420;17.842;2023-02-12T09:46:28;3.25;;;1.52;;
14292;SDS011;62290;59.420;17.842;2023-02-12T09:49:02;3.13;;;1.38;;
14292;SDS011;62290;59.420;17.842;2023-02-12T09:51:35;6.88;;;1.70;;
14292;SDS011;62290;59.420;17.842;2023-02-12T09:54:06;1.90;;;1.30;;
14292;SDS011;62290;59.420;17.842;2023-02-12T09:56:40;3.13;;;1.75;;
14292;SDS011;62290;59.420;17.842;2023-02-12T09:59:15;4.78;;;1.83;;
14292;SDS011;62290;59.420;17.842;2023-02-12T10:01:52;3.28;;;1.25;;
14292;SDS011;62290;59.420;17.842;2023-02-12T10:04:21;4.07;;;1.60;;
14292;SDS011;62290;59.420;17.842;2023-02-12T10:06:53;2.75;;;1.50;;
14292;SDS011;62290;59.420;17.842;2023-02-12T10:09:56;2.95;;;1.67;;
14292;SDS011;62290;59.420;17.842;2023-02-12T10:12:49;2.97;;;1.58;;
14292;SDS011;62290;59.420;17.842;2023-02-12T10:15:26;4.32;;;1.50;;
14292;SDS011;62290;59.420;17.842;2023-02-12T10:18:05;5.03;;;1.83;;
14292;SDS011;62290;59.420;17.842;2023-02-12T10:23:40;3.55;;;1.80;;
14292;SDS011;62290;59.420;17.842;2023-02-12T10:26:21;5.75;;;1.50;;
14292;SDS011;62290;59.420;17.842;2023-02-12T10:28:52;3.38;;;1.50;;
14292;SDS011;62290;59.420;17.842;2023-02-12T10:31:26;3.63;;;1.60;;
14292;SDS011;62290;59.420;17.842;2023-02-12T10:33:58;4.60;;;2.30;;
14292;SDS011;62290;59.420;17.842;2023-02-12T10:36:30;3.55;;;1.50;;
14292;SDS011;62290;59.420;17.842;2023-02-12T10:39:10;3.22;;;1.98;;
14292;SDS011;62290;59.420;17.842;2023-02-12T10:41:43;2.03;;;1.48;;
14292;SDS011;62290;59.420;17.842;2023-02-12T10:44:14;3.00;;;1.60;;
14292;SDS011;62290;59.420;17.842;2023-02-12T10:46:43;4.97;;;2.10;;
14292;SDS011;62290;59.420;17.842;2023-02-12T10:49:12;5.07;;;1.80;;
14292;SDS011;62290;59.420;17.842;2023-02-12T10:51:57;3.17;;;1.60;;
14292;SDS011;62290;59.420;17.842;2023-02-12T10:54:31;4.00;;;1.95;;
14292;SDS011;62290;59.420;17.842;2023-02-12T10:57:05;5.22;;;1.80;;
14292;SDS011;62290;59.420;17.842;2023-02-12T10:59:37;3.75;;;1.80;;
14292;SDS011;62290;59.420;17.842;2023-02-12T11:02:18;4.70;;;1.80;;
14292;SDS011;62290;59.420;17.842;2023-02-12T11:04:48;3.83;;;1.70;;
14292;SDS011;62290;59.420;17.842;2023-02-12T11:07:18;3.85;;;1.75;;
14292;SDS011;62290;59.420;17.842;2023-02-12T11:09:47;5.10;;;1.70;;
14292;SDS011;62290;59.420;17.842;2023-02-12T11:12:20;4.88;;;1.95;;
14292;SDS011;62290;59.420;17.842;2023-02-12T11:14:54;4.35;;;1.50;;
14292;SDS011;62290;59.420;17.842;2023-02-12T11:17:29;5.00;;;1.70;;
14292;SDS011;62290;59.420;17.842;2023-02-12T11:20:06;3.95;;;1.85;;
14292;SDS011;62290;59.420;17.842;2023-02-12T11:22:50;3.35;;;1.48;;
14292;SDS011;62290;59.420;17.842;2023-02-12T11:25:21;3.67;;;1.60;;
14292;SDS011;62290;59.420;17.842;2023-02-12T11:27:58;4.78;;;1.88;;
14292;SDS011;62290;59.420;17.842;2023-02-12T11:30:28;8.38;;;2.22;;
14292;SDS011;62290;59.420;17.842;2023-02-12T11:35:51;93.55;;;53.15;;
14292;SDS011;62290;59.420;17.842;2023-02-12T11:38:23;320.60;;;162.20;;
14292;SDS011;62290;59.420;17.842;2023-02-12T11:40:55;302.15;;;152.98;;
14292;SDS011;62290;59.420;17.842;2023-02-12T11:43:26;209.05;;;108.55;;
14292;SDS011;62290;59.420;17.842;2023-02-12T11:45:57;155.77;;;77.38;;
14292;SDS011;62290;59.420;17.842;2023-02-12T11:48:29;105.72;;;55.42;;
14292;SDS011;62290;59.420;17.842;2023-02-12T11:51:01;84.93;;;44.10;;
14292;SDS011;62290;59.420;17.842;2023-02-12T11:53:31;65.10;;;34.92;;
14292;SDS011;62290;59.420;17.842;2023-02-12T11:56:03;50.25;;;28.67;;
14292;SDS011;62290;59.420;17.842;2023-02-12T11:58:33;47.75;;;25.42;;
14292;SDS011;62290;59.420;17.842;2023-02-12T12:01:03;38.20;;;22.17;;
14292;SDS011;62290;59.420;17.842;2023-02-12T12:03:39;37.25;;;20.70;;
14292;SDS011;62290;59.420;17.842;2023-02-12T12:06:15;35.78;;;18.65;;
14292;SDS011;62290;59.420;17.842;2023-02-12T12:08:52;32.28;;;17.70;;
14292;SDS011;62290;59.420;17.842;2023-02-12T12:11:28;28.75;;;15.88;;
14292;SDS011;62290;59.420;17.842;2023-02-12T12:14:03;28.35;;;15.40;;
14292;SDS011;62290;59.420;17.842;2023-02-12T12:16:40;27.33;;;12.77;;
14292;SDS011;62290;59.420;17.842;2023-02-12T12:19:31;22.80;;;12.38;;
14292;SDS011;62290;59.420;17.842;2023-02-12T12:22:25;25.85;;;11.93;;
14292;SDS011;62290;59.420;17.842;2023-02-12T12:25:07;21.45;;;10.48;;
14292;SDS011;62290;59.420;17.842;2023-02-12T12:27:42;27.75;;;11.68;;
14292;SDS011;62290;59.420;17.842;2023-02-12T12:30:35;29.25;;;10.90;;
14292;SDS011;62290;59.420;17.842;2023-02-12T12:33:13;23.40;;;9.50;;
14292;SDS011;62290;59.420;17.842;2023-02-12T12:35:50;20.13;;;8.93;;
14292;SDS011;62290;59.420;17.842;2023-02-12T12:38:31;21.63;;;8.32;;
14292;SDS011;62290;59.420;17.842;2023-02-12T12:41:11;20.95;;;8.05;;
14292;SDS011;62290;59.420;17.842;2023-02-12T12:43:53;15.35;;;8.25;;
14292;SDS011;62290;59.420;17.842;2023-02-12T12:46:43;18.00;;;7.38;;
14292;SDS011;62290;59.420;17.842;2023-02-12T12:49:37;19.20;;;6.82;;
14292;SDS011;62290;59.420;17.842;2023-02-12T12:52:30;17.83;;;6.32;;
14292;SDS011;62290;59.420;17.842;2023-02-12T12:55:22;12.63;;;5.72;;
14292;SDS011;62290;59.420;17.842;2023-02-12T12:58:08;14.55;;;5.85;;
14292;SDS011;62290;59.420;17.842;2023-02-12T13:00:58;15.93;;;5.57;;
14292;SDS011;62290;59.420;17.842;2023-02-12T13:06:40;11.23;;;5.30;;
14292;SDS011;62290;59.420;17.842;2023-02-12T13:09:23;11.40;;;5.47;;
14292;SDS011;62290;59.420;17.842;2023-02-12T13:12:05;12.32;;;5.25;;
14292;SDS011;62290;59.420;17.842;2023-02-12T13:14:52;8.27;;;4.30;;
14292;SDS011;62290;59.420;17.842;2023-02-12T13:17:27;11.73;;;4.82;;
14292;SDS011;62290;59.420;17.842;2023-02-12T13:20:04;9.38;;;4.50;;
14292;SDS011;62290;59.420;17.842;2023-02-12T13:22:39;13.65;;;4.85;;
14292;SDS011;62290;59.420;17.842;2023-02-12T13:25:20;8.30;;;4.00;;
14292;SDS011;62290;59.420;17.842;2023-02-12T13:27:52;9.13;;;3.63;;
14292;SDS011;62290;59.420;17.842;2023-02-12T13:30:24;10.52;;;3.72;;
14292;SDS011;62290;59.420;17.842;2023-02-12T13:33:00;9.10;;;3.65;;
14292;SDS011;62290;59.420;17.842;2023-02-12T13:35:34;7.05;;;3.63;;
14292;SDS011;62290;59.420;17.842;2023-02-12T13:38:04;11.82;;;3.70;;
14292;SDS011;62290;59.420;17.842;2023-02-12T13:40:36;8.15;;;3.45;;
14292;SDS011;62290;59.420;17.842;2023-02-12T13:43:07;9.63;;;3.30;;
14292;SDS011;62290;59.420;17.842;2023-02-12T13:45:46;6.00;;;3.20;;
14292;SDS011;62290;59.420;17.842;2023-02-12T13:48:26;7.22;;;3.17;;
14292;SDS011;62290;59.420;17.842;2023-02-12T13:51:03;8.55;;;3.53;;
14292;SDS011;62290;59.420;17.842;2023-02-12T13:53:43;8.75;;;3.40;;
14292;SDS011;62290;59.420;17.842;2023-02-12T13:56:26;8.23;;;3.42;;
14292;SDS011;62290;59.420;17.842;2023-02-12T13:59:01;7.00;;;2.65;;
14292;SDS011;62290;59.420;17.842;2023-02-12T14:04:21;6.97;;;3.00;;
14292;SDS011;62290;59.420;17.842;2023-02-12T14:06:55;6.07;;;3.00;;
14292;SDS011;62290;59.420;17.842;2023-02-12T14:09:31;7.68;;;3.13;;
14292;SDS011;62290;59.420;17.842;2023-02-12T14:12:08;5.85;;;2.78;;
14292;SDS011;62290;59.420;17.842;2023-02-12T14:14:39;5.82;;;2.65;;
14292;SDS011;62290;59.420;17.842;2023-02-12T14:20:23;5.05;;;2.50;;
14292;SDS011;62290;59.420;17.842;2023-02-12T14:22:57;4.95;;;2.63;;
14292;SDS011;62290;59.420;17.842;2023-02-12T14:26:02;5.60;;;2.90;;
14292;SDS011;62290;59.420;17.842;2023-02-12T14:31:31;5.75;;;2.53;;
14292;SDS011;62290;59.420;17.842;2023-02-12T14:37:10;4.70;;;2.38;;
14292;SDS011;62290;59.420;17.842;2023-02-12T14:39:43;8.20;;;2.53;;
14292;SDS011;62290;59.420;17.842;2023-02-12T14:45:29;4.88;;;2.45;;
14292;SDS011;62290;59.420;17.842;2023-02-12T14:47:59;6.00;;;2.63;;
14292;SDS011;62290;59.420;17.842;2023-02-12T14:50:29;4.53;;;2.65;;
14292;SDS011;62290;59.420;17.842;2023-02-12T14:53:07;5.07;;;2.47;;
14292;SDS011;62290;59.420;17.842;2023-02-12T14:55:47;3.92;;;2.20;;
14292;SDS011;62290;59.420;17.842;2023-02-12T14:58:18;5.00;;;2.50;;
14292;SDS011;62290;59.420;17.842;2023-02-12T15:00:49;5.50;;;2.90;;
14292;SDS011;62290;59.420;17.842;2023-02-12T15:03:22;6.20;;;2.60;;
14292;SDS011;62290;59.420;17.842;2023-02-12T15:06:00;4.32;;;2.25;;
14292;SDS011;62290;59.420;17.842;2023-02-12T15:08:34;6.22;;;2.70;;
14292;SDS011;62290;59.420;17.842;2023-02-12T15:11:11;4.20;;;2.30;;
14292;SDS011;62290;59.420;17.842;2023-02-12T15:13:48;6.10;;;2.78;;
14292;SDS011;62290;59.420;17.842;2023-02-12T15:16:23;5.13;;;2.58;;
14292;SDS011;62290;59.420;17.842;2023-02-12T15:18:59;4.50;;;2.45;;
14292;SDS011;62290;59.420;17.842;2023-02-12T15:21:32;33.75;;;3.75;;
14292;SDS011;62290;59.420;17.842;2023-02-12T15:24:03;12.57;;;3.60;;
14292;SDS011;62290;59.420;17.842;2023-02-12T15:26:33;10.43;;;3.13;;
14292;SDS011;62290;59.420;17.842;2023-02-12T15:29:06;8.18;;;3.15;;